Okemah, Oklahoma
Current Conditions -  °F | °C
As of 3:15 PM on Saturday 22 Nov 2014 (Local Time) from KOKM Reporting Station
Light Rain Light Rain  
Wind Chill: 55°   Ceiling: 9000
Heat Index: 55°   Visibility: 10mi
Dew Point: 54°   Wind: 24mph
Humidity: 97%   Direction: 160°SSE
Pressure: 29.84"   Gusts: 35mph
Location:  35.43°N, 96.3°W
Report Text: KOKM 222115Z AUTO 16021G30KT 10SM -RA SCT005 SCT040 OVC090 13/12 A2984 RMK AO2 LTG DSNT SW P0001 T01250121
Loading
Personal Weather Stations






























Interactive Weather Map New forecast layout! Learn more

10-Day Weather Forecast

Advertisements
Track Severe Weather on mobile